createdAt,value
2019-05-30T00:00:45.667Z,44.83
2019-05-30T00:03:13.032Z,44.85
2019-05-30T00:05:40.282Z,44.86
2019-05-30T00:08:07.499Z,44.96
2019-05-30T00:10:34.710Z,45.10
2019-05-30T00:13:02.851Z,45.19
2019-05-30T00:15:30.166Z,45.26
2019-05-30T00:17:58.736Z,45.38
2019-05-30T00:20:25.857Z,45.50
2019-05-30T00:22:52.947Z,45.73
2019-05-30T00:25:20.513Z,45.82
2019-05-30T00:27:49.108Z,45.93
2019-05-30T00:30:24.478Z,45.89
2019-05-30T00:32:46.139Z,45.94
2019-05-30T00:35:13.383Z,45.97
2019-05-30T00:37:40.455Z,45.98
2019-05-30T00:40:08.458Z,46.05
2019-05-30T00:42:37.463Z,46.24
2019-05-30T00:45:19.681Z,46.41
2019-05-30T00:47:38.152Z,46.45
2019-05-30T00:50:06.703Z,46.52
2019-05-30T00:52:34.298Z,46.55
2019-05-30T00:55:02.971Z,46.59
2019-05-30T00:57:30.229Z,46.72
2019-05-30T00:59:58.690Z,46.84
2019-05-30T01:02:27.107Z,46.83
2019-05-30T01:04:54.210Z,46.90
2019-05-30T01:07:21.285Z,47.03
2019-05-30T01:09:48.627Z,47.18
2019-05-30T01:12:17.084Z,47.27
2019-05-30T01:14:44.296Z,47.42
2019-05-30T01:17:11.622Z,47.48
2019-05-30T01:19:38.918Z,47.56
2019-05-30T01:22:07.589Z,47.64
2019-05-30T01:24:34.939Z,47.84
2019-05-30T01:27:03.428Z,47.91
2019-05-30T01:29:31.083Z,48.02
2019-05-30T01:32:01.584Z,48.20
2019-05-30T01:34:28.687Z,48.35
2019-05-30T01:36:56.056Z,48.60
2019-05-30T01:39:23.200Z,48.70
2019-05-30T01:41:50.320Z,48.93
2019-05-30T01:44:17.457Z,48.93
2019-05-30T01:46:44.818Z,49.02
2019-05-30T01:49:12.183Z,49.09
2019-05-30T01:51:39.457Z,49.22
2019-05-30T01:54:06.681Z,49.24
2019-05-30T01:56:33.759Z,49.31
2019-05-30T01:59:00.893Z,49.48
2019-05-30T02:01:27.999Z,49.47
2019-05-30T02:03:55.319Z,49.67
2019-05-30T02:06:22.616Z,49.77
2019-05-30T02:08:50.878Z,50.02
2019-05-30T02:11:17.977Z,50.07
2019-05-30T02:13:45.298Z,49.92
2019-05-30T02:16:13.849Z,49.93
2019-05-30T02:18:41.019Z,50.19
2019-05-30T02:21:08.386Z,50.03
2019-05-30T02:23:37.453Z,50.12
2019-05-30T02:26:06.302Z,50.31
2019-05-30T02:28:33.555Z,50.44
2019-05-30T02:31:02.948Z,50.49
2019-05-30T02:33:30.122Z,50.87
2019-05-30T02:35:57.216Z,50.69
2019-05-30T02:38:25.517Z,50.98
2019-05-30T02:40:54.392Z,51.22
2019-05-30T02:43:23.408Z,51.20
2019-05-30T02:45:50.606Z,51.46
2019-05-30T02:48:17.919Z,51.42
2019-05-30T02:50:45.014Z,51.46
2019-05-30T02:53:13.015Z,51.33
2019-05-30T02:55:41.211Z,51.33
2019-05-30T02:58:10.258Z,51.41
2019-05-30T03:00:37.479Z,51.75
2019-05-30T03:03:06.712Z,51.70
2019-05-30T03:05:33.788Z,51.82
2019-05-30T03:08:02.092Z,52.13
2019-05-30T03:10:30.284Z,52.28
2019-05-30T03:12:57.467Z,52.54
2019-05-30T03:15:25.178Z,52.87
2019-05-30T03:17:52.252Z,52.68
2019-05-30T03:20:23.261Z,52.72
2019-05-30T03:22:48.404Z,52.72
2019-05-30T03:25:16.252Z,52.93
2019-05-30T03:27:43.716Z,53.04
2019-05-30T03:30:22.286Z,53.24
2019-05-30T03:33:05.440Z,53.24
2019-05-30T03:35:21.596Z,53.17
2019-05-30T03:37:41.468Z,53.47
2019-05-30T03:40:08.810Z,53.14
2019-05-30T03:42:35.881Z,53.48
2019-05-30T03:45:04.776Z,53.40
2019-05-30T03:47:34.920Z,53.29
2019-05-30T03:50:05.151Z,53.37
2019-05-30T03:52:32.271Z,53.39
2019-05-30T03:54:59.654Z,53.26
2019-05-30T03:57:31.438Z,53.42
2019-05-30T04:00:05.851Z,53.08
2019-05-30T04:02:56.186Z,52.97
2019-05-30T04:05:19.335Z,52.94
2019-05-30T04:07:50.612Z,52.91
2019-05-30T04:10:21.370Z,52.95
2019-05-30T04:13:31.645Z,52.94
2019-05-30T04:15:58.729Z,53.08
2019-05-30T04:18:25.820Z,52.92
2019-05-30T04:20:52.936Z,52.88
2019-05-30T04:23:21.921Z,52.88
2019-05-30T04:25:48.980Z,53.09
2019-05-30T04:28:16.407Z,53.08
2019-05-30T04:30:45.129Z,53.14
2019-05-30T04:33:25.134Z,53.10
2019-05-30T04:35:41.216Z,53.10
2019-05-30T04:38:08.624Z,53.22
2019-05-30T04:40:36.958Z,53.11
2019-05-30T04:43:04.035Z,53.06
2019-05-30T04:45:31.162Z,52.93
2019-05-30T04:47:58.237Z,53.01
2019-05-30T04:50:25.371Z,52.96
2019-05-30T04:52:52.452Z,52.98
2019-05-30T04:55:21.085Z,52.89
2019-05-30T04:57:48.647Z,52.90
2019-05-30T05:00:17.137Z,52.84
2019-05-30T05:02:44.269Z,52.95
2019-05-30T05:05:13.220Z,52.91
2019-05-30T05:07:40.603Z,52.97
2019-05-30T05:10:07.895Z,53.00
2019-05-30T05:12:34.997Z,53.01
2019-05-30T05:15:02.076Z,53.16
2019-05-30T05:17:29.190Z,52.86
2019-05-30T05:19:57.485Z,52.60
2019-05-30T05:22:24.527Z,52.49
2019-05-30T05:24:52.827Z,52.45
2019-05-30T05:27:19.919Z,52.39
2019-05-30T05:29:46.996Z,52.22
2019-05-30T05:32:14.564Z,52.05
2019-05-30T05:34:41.819Z,51.88
2019-05-30T05:37:10.812Z,51.80
2019-05-30T05:39:39.228Z,51.81
2019-05-30T05:42:06.700Z,51.73
2019-05-30T05:44:33.847Z,51.44
2019-05-30T05:47:02.173Z,51.15
2019-05-30T05:49:29.252Z,50.98
2019-05-30T05:51:57.487Z,50.69
2019-05-30T05:54:25.054Z,50.61
2019-05-30T05:56:52.270Z,50.45
2019-05-30T05:59:19.394Z,50.33
2019-05-30T06:01:46.523Z,50.24
2019-05-30T06:04:13.945Z,50.22
2019-05-30T06:06:41.226Z,50.42
2019-05-30T06:09:08.783Z,50.15
2019-05-30T06:11:36.922Z,50.04
2019-05-30T06:14:04.182Z,50.05
2019-05-30T06:16:31.390Z,49.89
2019-05-30T06:18:58.469Z,49.95
2019-05-30T06:21:25.654Z,50.32
2019-05-30T06:23:52.751Z,50.03
2019-05-30T06:26:20.059Z,49.99
2019-05-30T06:28:47.200Z,49.80
2019-05-30T06:31:14.367Z,49.70
2019-05-30T06:33:41.519Z,49.71
2019-05-30T06:36:09.915Z,49.57
2019-05-30T06:38:37.542Z,49.31
2019-05-30T06:41:04.629Z,49.17
2019-05-30T06:43:31.833Z,49.04
2019-05-30T06:45:58.935Z,48.80
2019-05-30T06:48:26.832Z,48.73
2019-05-30T06:50:55.918Z,48.38
2019-05-30T06:53:23.324Z,47.88
2019-05-30T06:55:50.486Z,47.62
2019-05-30T06:58:17.626Z,47.57
2019-05-30T07:00:44.889Z,47.32
2019-05-30T07:03:12.452Z,47.01
2019-05-30T07:05:40.264Z,46.91
2019-05-30T07:08:07.805Z,46.71
2019-05-30T07:10:34.948Z,46.59
2019-05-30T07:13:02.217Z,46.37
2019-05-30T07:15:31.391Z,46.16
2019-05-30T07:17:58.669Z,46.06
2019-05-30T07:20:25.751Z,45.80
2019-05-30T07:22:52.917Z,45.47
2019-05-30T07:25:21.628Z,45.11
2019-05-30T07:27:48.717Z,45.05
2019-05-30T07:30:17.087Z,44.67
2019-05-30T07:32:44.303Z,44.60
2019-05-30T07:35:11.593Z,44.74
2019-05-30T07:37:38.674Z,44.20
2019-05-30T07:40:06.613Z,44.22
2019-05-30T07:42:34.884Z,44.25
2019-05-30T07:45:02.245Z,43.68
2019-05-30T07:47:30.163Z,43.48
2019-05-30T07:49:57.434Z,43.36
2019-05-30T07:52:24.689Z,43.31
2019-05-30T07:54:51.770Z,42.96
2019-05-30T07:57:19.280Z,42.41
2019-05-30T07:59:46.540Z,42.46
2019-05-30T08:02:13.718Z,42.26
2019-05-30T08:04:40.932Z,42.21
2019-05-30T08:07:08.034Z,42.02
2019-05-30T08:09:35.160Z,41.47
2019-05-30T08:12:02.301Z,41.50
2019-05-30T08:14:29.425Z,41.56
2019-05-30T08:16:56.607Z,41.11
2019-05-30T08:19:24.963Z,41.02
2019-05-30T08:21:52.104Z,41.14
2019-05-30T08:24:19.175Z,41.09
2019-05-30T08:26:46.255Z,41.15
2019-05-30T08:29:13.345Z,41.15
2019-05-30T08:31:40.430Z,40.68
2019-05-30T08:34:09.426Z,40.65
2019-05-30T08:36:37.092Z,40.34
2019-05-30T08:39:06.205Z,40.24
2019-05-30T08:41:33.269Z,40.25
2019-05-30T08:44:00.339Z,39.97
2019-05-30T08:46:27.423Z,39.84
2019-05-30T08:48:54.595Z,39.84
2019-05-30T08:51:21.680Z,39.67
2019-05-30T08:53:48.767Z,39.65
2019-05-30T08:56:15.940Z,39.24
2019-05-30T08:58:43.108Z,39.49
2019-05-30T09:01:10.283Z,39.32
2019-05-30T09:03:38.475Z,39.11
2019-05-30T09:06:05.860Z,39.09
2019-05-30T09:08:32.961Z,38.95
2019-05-30T09:11:00.027Z,38.69
2019-05-30T09:13:27.243Z,38.35
2019-05-30T09:15:54.330Z,38.51
2019-05-30T09:18:21.538Z,38.50
2019-05-30T09:20:48.742Z,38.97
2019-05-30T09:23:16.974Z,39.44
2019-05-30T09:25:46.878Z,39.54
2019-05-30T09:28:13.078Z,39.82
2019-05-30T09:30:41.589Z,39.49
2019-05-30T09:33:09.499Z,39.72
2019-05-30T09:35:38.498Z,40.28
2019-05-30T09:38:06.967Z,40.47
2019-05-30T09:40:34.241Z,40.69
2019-05-30T09:43:01.374Z,40.88
2019-05-30T09:45:31.044Z,40.69
2019-05-30T09:47:58.277Z,40.48
2019-05-30T09:50:25.354Z,40.16
2019-05-30T09:52:54.235Z,40.53
2019-05-30T09:55:23.876Z,40.27
2019-05-30T09:57:51.724Z,40.19
2019-05-30T10:00:19.713Z,40.04
2019-05-30T10:02:48.549Z,39.89
2019-05-30T10:05:17.215Z,39.58
2019-05-30T10:07:45.475Z,39.16
2019-05-30T10:10:14.791Z,38.69
2019-05-30T10:12:42.035Z,38.86
2019-05-30T10:15:13.058Z,38.16
2019-05-30T10:17:40.427Z,38.17
2019-05-30T10:20:09.628Z,38.51
2019-05-30T10:22:36.932Z,38.46
2019-05-30T10:25:04.815Z,38.22
2019-05-30T10:27:31.925Z,37.92
2019-05-30T10:29:59.148Z,38.16
2019-05-30T10:32:26.226Z,38.18
2019-05-30T10:34:53.954Z,37.78
2019-05-30T10:37:21.145Z,37.02
2019-05-30T10:39:49.179Z,37.17
2019-05-30T10:42:16.505Z,38.00
2019-05-30T10:44:51.044Z,38.30
2019-05-30T10:47:18.489Z,38.16
2019-05-30T10:49:48.044Z,38.12
2019-05-30T10:52:15.527Z,37.54
2019-05-30T10:54:45.010Z,37.46
2019-05-30T10:57:13.362Z,37.16
2019-05-30T10:59:42.604Z,36.49
2019-05-30T11:02:10.924Z,36.84
2019-05-30T11:04:40.219Z,36.41
2019-05-30T11:07:18.720Z,36.51
2019-05-30T11:09:51.150Z,36.27
2019-05-30T11:12:18.414Z,35.93
2019-05-30T11:14:45.469Z,35.72
2019-05-30T11:17:12.562Z,35.74
2019-05-30T11:19:39.805Z,35.28
2019-05-30T11:22:08.050Z,35.44
2019-05-30T11:24:35.217Z,35.34
2019-05-30T11:27:02.566Z,35.09
2019-05-30T11:29:29.799Z,35.47
2019-05-30T11:31:59.049Z,35.52
2019-05-30T11:34:26.564Z,35.35
2019-05-30T11:36:53.613Z,35.13
2019-05-30T11:39:21.892Z,35.31
2019-05-30T11:41:49.260Z,35.31
2019-05-30T11:44:16.326Z,34.53
2019-05-30T11:46:43.435Z,34.30
2019-05-30T11:49:10.759Z,34.12
2019-05-30T11:51:38.557Z,33.51
2019-05-30T11:54:06.264Z,33.79
2019-05-30T11:56:33.343Z,34.22
2019-05-30T11:59:00.431Z,34.17
2019-05-30T12:01:27.591Z,34.30
2019-05-30T12:03:54.660Z,34.51
2019-05-30T12:06:22.497Z,33.83
2019-05-30T12:08:50.684Z,34.05
2019-05-30T12:11:18.184Z,33.42
2019-05-30T12:13:45.260Z,34.38
2019-05-30T12:16:12.389Z,34.76
2019-05-30T12:18:39.531Z,35.20
2019-05-30T12:21:06.859Z,35.36
2019-05-30T12:23:35.780Z,35.50
2019-05-30T12:26:03.445Z,35.74
2019-05-30T12:28:30.536Z,36.21
2019-05-30T12:31:02.686Z,36.40
2019-05-30T12:33:26.867Z,36.65
2019-05-30T12:35:54.452Z,36.79
2019-05-30T12:38:21.750Z,36.92
2019-05-30T12:40:48.881Z,36.95
2019-05-30T12:43:16.477Z,37.52
2019-05-30T12:45:45.011Z,37.91
2019-05-30T12:48:12.096Z,38.06
2019-05-30T12:50:39.187Z,38.04
2019-05-30T12:53:08.160Z,38.18
2019-05-30T12:55:37.523Z,38.35
2019-05-30T12:58:05.426Z,38.81
2019-05-30T13:00:33.642Z,38.94
2019-05-30T13:03:01.095Z,39.03
2019-05-30T13:05:29.994Z,39.23
2019-05-30T13:08:11.725Z,39.86
2019-05-30T13:10:27.558Z,39.90
2019-05-30T13:12:55.578Z,40.42
2019-05-30T13:15:22.979Z,40.47
2019-05-30T13:17:50.103Z,40.68
2019-05-30T13:20:17.576Z,40.79
2019-05-30T13:22:44.655Z,40.89
2019-05-30T13:25:14.312Z,41.12
2019-05-30T13:27:41.424Z,41.63
2019-05-30T13:30:09.512Z,41.78
2019-05-30T13:32:36.596Z,42.34
2019-05-30T13:35:05.437Z,42.32
2019-05-30T13:37:32.869Z,42.30
2019-05-30T13:40:00.086Z,42.46
2019-05-30T13:42:27.290Z,42.72
2019-05-30T13:44:55.681Z,42.66
2019-05-30T13:47:22.875Z,42.98
2019-05-30T13:49:49.968Z,43.28
2019-05-30T13:52:18.346Z,43.65
2019-05-30T13:54:45.499Z,44.16
2019-05-30T13:57:12.608Z,44.17
2019-05-30T13:59:39.735Z,44.16
2019-05-30T14:02:08.026Z,44.11
2019-05-30T14:04:37.099Z,44.36
2019-05-30T14:07:04.284Z,44.43
2019-05-30T14:09:32.024Z,44.82
2019-05-30T14:12:00.335Z,44.83
2019-05-30T14:14:27.765Z,45.21
2019-05-30T14:16:54.872Z,45.28
2019-05-30T14:19:25.032Z,45.35
2019-05-30T14:21:50.923Z,45.54
2019-05-30T14:24:18.002Z,45.98
2019-05-30T14:26:46.291Z,46.46
2019-05-30T14:29:13.476Z,46.38
2019-05-30T14:31:44.404Z,46.70
2019-05-30T14:34:12.228Z,46.78
2019-05-30T14:36:39.534Z,48.01
2019-05-30T14:39:06.980Z,47.34
2019-05-30T14:41:34.038Z,47.62
2019-05-30T14:44:01.113Z,47.41
2019-05-30T14:46:29.591Z,47.51
2019-05-30T14:48:58.558Z,47.51
2019-05-30T14:51:26.976Z,47.46
2019-05-30T14:53:54.105Z,47.55
2019-05-30T14:56:21.321Z,47.81
2019-05-30T14:58:48.461Z,48.18
2019-05-30T15:01:15.564Z,48.04
2019-05-30T15:03:43.745Z,47.99
2019-05-30T15:06:13.282Z,47.71
2019-05-30T15:08:39.830Z,47.68
2019-05-30T15:11:07.457Z,47.62
2019-05-30T15:13:34.972Z,47.53
2019-05-30T15:16:02.152Z,47.54
2019-05-30T15:18:31.291Z,47.42
2019-05-30T15:20:58.440Z,47.41
2019-05-30T15:23:25.542Z,47.41
2019-05-30T15:25:52.721Z,47.56
2019-05-30T15:28:19.997Z,47.35
2019-05-30T15:30:47.090Z,47.35
2019-05-30T15:33:14.525Z,47.42
2019-05-30T15:35:43.088Z,47.65
2019-05-30T15:38:10.804Z,47.66
2019-05-30T15:40:38.215Z,47.79
2019-05-30T15:43:05.535Z,47.64
2019-05-30T15:45:32.850Z,47.74
2019-05-30T15:48:01.830Z,47.77
2019-05-30T15:50:28.911Z,48.10
2019-05-30T15:52:58.970Z,47.90
2019-05-30T15:55:26.058Z,47.99
2019-05-30T15:57:53.142Z,48.16
2019-05-30T16:00:20.751Z,48.09
2019-05-30T16:02:49.199Z,48.54
2019-05-30T16:05:16.855Z,48.40
2019-05-30T16:07:45.718Z,48.62
2019-05-30T16:10:13.060Z,48.39
2019-05-30T16:12:40.314Z,48.59
2019-05-30T16:15:08.113Z,48.84
2019-05-30T16:17:35.232Z,48.83
2019-05-30T16:20:02.337Z,48.93
2019-05-30T16:22:29.423Z,49.14
2019-05-30T16:24:56.584Z,49.47
2019-05-30T16:27:24.144Z,49.30
2019-05-30T16:29:51.681Z,49.21
2019-05-30T16:32:22.193Z,49.22
2019-05-30T16:34:49.408Z,49.50
2019-05-30T16:37:16.511Z,49.32
2019-05-30T16:39:43.604Z,49.52
2019-05-30T16:42:11.269Z,49.89
2019-05-30T16:44:39.469Z,50.49
2019-05-30T16:47:06.780Z,50.85
2019-05-30T16:49:33.890Z,50.71
2019-05-30T16:52:02.826Z,50.62
2019-05-30T16:54:31.885Z,51.06
2019-05-30T16:56:59.049Z,51.18
2019-05-30T16:59:26.904Z,51.16
2019-05-30T17:01:58.237Z,51.59
2019-05-30T17:04:24.447Z,51.72
2019-05-30T17:06:52.648Z,52.11
2019-05-30T17:09:21.710Z,51.97
2019-05-30T17:11:49.244Z,52.13
2019-05-30T17:14:17.615Z,52.11
2019-05-30T17:16:45.944Z,52.22
2019-05-30T17:19:13.067Z,52.30
2019-05-30T17:21:40.135Z,52.26
2019-05-30T17:24:09.236Z,52.33
2019-05-30T17:26:36.388Z,52.11
2019-05-30T17:29:03.582Z,52.19
2019-05-30T17:31:30.806Z,52.21
2019-05-30T17:33:57.893Z,52.40
2019-05-30T17:36:26.942Z,52.37
2019-05-30T17:38:53.995Z,52.49
2019-05-30T17:41:21.197Z,52.76
2019-05-30T17:43:48.548Z,52.45
2019-05-30T17:46:15.590Z,52.57
2019-05-30T17:48:42.672Z,52.65
2019-05-30T17:51:09.743Z,52.71
2019-05-30T17:53:37.853Z,52.73
2019-05-30T17:56:04.949Z,53.00
2019-05-30T17:58:33.854Z,52.96
2019-05-30T18:01:00.959Z,52.93
2019-05-30T18:03:28.504Z,52.91
2019-05-30T18:05:55.820Z,53.24
2019-05-30T18:08:22.915Z,53.02
2019-05-30T18:10:53.738Z,53.85
2019-05-30T18:13:19.044Z,53.32
2019-05-30T18:15:46.375Z,53.33
2019-05-30T18:18:13.547Z,53.22
2019-05-30T18:20:48.570Z,53.64
2019-05-30T18:23:09.773Z,53.58
2019-05-30T18:25:38.742Z,53.77
2019-05-30T18:28:07.650Z,53.78
2019-05-30T18:30:40.298Z,54.26
2019-05-30T18:33:07.469Z,53.82
2019-05-30T18:35:34.503Z,53.77
2019-05-30T18:38:02.280Z,53.97
2019-05-30T18:40:30.963Z,53.89
2019-05-30T18:42:59.940Z,54.35
2019-05-30T18:45:38.460Z,54.16
2019-05-30T18:48:05.887Z,54.38
2019-05-30T18:50:33.517Z,54.40
2019-05-30T18:53:00.738Z,54.59
2019-05-30T18:55:30.782Z,55.42
2019-05-30T18:57:58.320Z,54.84
2019-05-30T19:00:29.626Z,54.69
2019-05-30T19:02:57.771Z,54.77
2019-05-30T19:05:28.564Z,54.86
2019-05-30T19:07:56.015Z,55.12
2019-05-30T19:10:24.315Z,55.44
2019-05-30T19:12:51.577Z,55.39
2019-05-30T19:15:19.001Z,55.56
2019-05-30T19:17:46.092Z,55.45
2019-05-30T19:20:14.532Z,55.66
2019-05-30T19:22:41.964Z,55.99
2019-05-30T19:25:10.769Z,55.79
2019-05-30T19:27:39.683Z,55.83
2019-05-30T19:30:08.719Z,55.99
2019-05-30T19:32:36.956Z,56.09
2019-05-30T19:35:07.611Z,56.31
2019-05-30T19:37:35.394Z,56.01
2019-05-30T19:40:03.306Z,56.42
2019-05-30T19:42:31.440Z,56.54
2019-05-30T19:44:58.801Z,56.61
2019-05-30T19:47:25.875Z,56.45
2019-05-30T19:49:54.071Z,56.43
2019-05-30T19:52:21.155Z,56.53
2019-05-30T19:54:48.289Z,56.94
2019-05-30T19:57:15.585Z,57.07
2019-05-30T19:59:42.676Z,57.49
2019-05-30T20:02:09.729Z,57.46
2019-05-30T20:04:37.050Z,57.57
2019-05-30T20:07:04.237Z,57.63
2019-05-30T20:09:32.450Z,57.96
2019-05-30T20:12:03.866Z,57.98
2019-05-30T20:14:30.925Z,58.29
2019-05-30T20:16:58.047Z,58.29
2019-05-30T20:19:25.327Z,58.28
2019-05-30T20:21:52.415Z,58.88
2019-05-30T20:24:19.619Z,58.93
2019-05-30T20:26:47.764Z,59.12
2019-05-30T20:29:14.951Z,58.99
2019-05-30T20:31:43.495Z,58.97
2019-05-30T20:34:10.873Z,59.19
2019-05-30T20:36:38.769Z,59.00
2019-05-30T20:39:07.178Z,59.14
2019-05-30T20:41:34.802Z,59.03
2019-05-30T20:44:02.073Z,59.43
2019-05-30T20:46:29.254Z,59.24
2019-05-30T20:48:56.382Z,59.53
2019-05-30T20:51:23.494Z,59.41
2019-05-30T20:53:50.992Z,59.64
2019-05-30T20:56:18.114Z,59.75
2019-05-30T20:58:45.796Z,59.73
2019-05-30T21:01:14.865Z,59.57
2019-05-30T21:03:43.826Z,59.88
2019-05-30T21:06:12.279Z,60.49
2019-05-30T21:08:41.177Z,60.38
2019-05-30T21:11:10.531Z,60.76
2019-05-30T21:13:40.269Z,60.96
2019-05-30T21:16:09.438Z,61.26
2019-05-30T21:18:38.211Z,61.00
2019-05-30T21:21:05.365Z,61.30
2019-05-30T21:23:32.399Z,61.21
2019-05-30T21:25:59.484Z,61.46
2019-05-30T21:28:39.172Z,61.09
2019-05-30T21:31:06.289Z,61.20
2019-05-30T21:33:33.417Z,61.33
2019-05-30T21:36:01.576Z,61.45
2019-05-30T21:38:31.767Z,61.60
2019-05-30T21:40:59.174Z,61.51
2019-05-30T21:43:27.333Z,61.39
2019-05-30T21:45:54.420Z,61.52
2019-05-30T21:48:21.537Z,61.50
2019-05-30T21:50:49.949Z,61.96
2019-05-30T21:53:17.622Z,62.05
2019-05-30T21:55:45.980Z,62.28
2019-05-30T21:58:13.168Z,62.46
2019-05-30T22:01:26.321Z,62.98
2019-05-30T22:03:56.031Z,62.64
2019-05-30T22:06:23.182Z,62.92
2019-05-30T22:11:31.439Z,63.35
2019-05-30T22:14:01.572Z,63.49
2019-05-30T22:16:28.642Z,63.87
2019-05-30T22:18:55.745Z,63.73
2019-05-30T22:21:24.017Z,64.37
2019-05-30T22:23:52.403Z,64.62
2019-05-30T22:26:19.769Z,64.50
2019-05-30T22:28:48.348Z,64.91
2019-05-30T22:31:15.580Z,64.85
2019-05-30T22:33:44.687Z,65.15
2019-05-30T22:36:12.061Z,65.46
2019-05-30T22:39:04.842Z,65.62
2019-05-30T22:41:31.251Z,66.07
2019-05-30T22:44:00.451Z,65.79
2019-05-30T22:46:29.427Z,66.00
2019-05-30T22:48:58.089Z,66.26
2019-05-30T22:51:27.557Z,67.12
2019-05-30T22:53:57.444Z,67.14
2019-05-30T22:56:27.385Z,67.58
2019-05-30T22:58:55.725Z,67.58
2019-05-30T23:01:23.046Z,67.96
2019-05-30T23:03:52.617Z,67.93
2019-05-30T23:06:21.798Z,68.52
2019-05-30T23:08:55.288Z,68.78
2019-05-30T23:11:24.559Z,69.00
2019-05-30T23:13:52.070Z,68.85
2019-05-30T23:16:19.386Z,69.86
2019-05-30T23:18:48.625Z,70.77
2019-05-30T23:21:17.128Z,70.76
2019-05-30T23:23:44.295Z,70.79
2019-05-30T23:26:11.505Z,70.42
2019-05-30T23:28:39.010Z,71.09
2019-05-30T23:31:07.756Z,70.83
2019-05-30T23:33:36.246Z,70.70
2019-05-30T23:36:03.678Z,70.46
2019-05-30T23:38:30.751Z,70.39
2019-05-30T23:40:59.170Z,70.48
2019-05-30T23:43:28.045Z,70.71
2019-05-30T23:45:55.761Z,70.71
2019-05-30T23:48:23.077Z,70.74
2019-05-30T23:50:55.999Z,70.98
2019-05-30T23:53:24.231Z,71.06
2019-05-30T23:55:54.264Z,70.97
2019-05-30T23:58:23.997Z,70.99
